Terminal Aerodrome Forecast
Issued by NWS Topeka, KS

Home | Current Version | Previous Version | Graphics & Text | Print | Product List | Glossary On
Versions: 1 2 3 4 5 6 7 8 9 10 11 12 13 14 15 16 17 18 19 20
000
FTUS43 KTOP 251400 AAA
TAFTOP
TAF AMD
KTOP 251427Z 2514/2612 12008KT P6SM SCT060
     FM251800 16014G24KT P6SM SCT050
     FM260200 17012KT P6SM VCTS SCT040CB BKN250=

USA.gov is the U.S. government's official web portal to all federal, state and local government web resources and services.